Time;durP1;ratioP1;P1;durP2;ratioP2;P2;SDS_P1;SDS_P2;PMS_P1;PMS_P2;Temp;Humidity;BMP_temperature;BMP_pressure;BME280_temperature;BME280_humidity;BME280_pressure;Samples;Min_cycle;Max_cycle;Signal;HPM_P1;HPM_P2
2022/11/09 00:01:19;;;;;;;7.13;3.85;;;;;;;15.50;62.83;99939.47;4940849;28;119767;-73
2022/11/09 00:03:46;;;;;;;9.15;4.18;;;;;;;15.51;63.18;99940.97;4943798;28;119586;-73
2022/11/09 00:06:12;;;;;;;7.90;4.20;;;;;;;15.52;63.31;99943.25;4943076;28;120215;-74
2022/11/09 00:08:39;;;;;;;9.75;4.40;;;;;;;15.52;63.29;99943.25;4944638;28;120482;-74
2022/11/09 00:11:09;;;;;;;7.75;4.20;;;;;;;15.55;63.54;99945.00;4933571;28;120134;-74
2022/11/09 00:13:37;;;;;;;10.77;4.43;;;;;;;15.59;63.74;99945.53;4943519;28;119774;-74
2022/11/09 00:16:04;;;;;;;6.63;3.90;;;;;;;15.63;63.69;99935.00;4943280;28;121203;-74
2022/11/09 00:18:30;;;;;;;9.13;3.90;;;;;;;15.73;63.40;99929.94;4941158;28;120248;-74
2022/11/09 00:20:56;;;;;;;7.75;3.90;;;;;;;15.78;63.50;99917.38;4945099;28;119778;-74
2022/11/09 00:23:22;;;;;;;6.65;3.90;;;;;;;15.88;63.26;99935.22;4947361;28;120689;-73
2022/11/09 00:25:48;;;;;;;7.47;3.93;;;;;;;15.90;63.34;99922.41;4942609;28;119747;-74
2022/11/09 00:28:16;;;;;;;6.27;3.73;;;;;;;16.00;63.15;99924.88;4942317;28;120299;-73
2022/11/09 00:30:42;;;;;;;8.63;3.80;;;;;;;16.03;63.15;99918.34;4944686;28;119743;-73
2022/11/09 00:33:09;;;;;;;10.13;4.00;;;;;;;16.07;63.33;99914.03;4940831;28;119327;-73
2022/11/09 00:35:38;;;;;;;7.30;3.80;;;;;;;16.14;63.28;99904.50;4941666;28;120230;-74
2022/11/09 00:38:04;;;;;;;9.40;3.70;;;;;;;16.19;62.84;99918.31;4942192;28;119727;-73
2022/11/09 00:40:30;;;;;;;8.85;3.92;;;;;;;16.24;62.93;99933.38;4944269;28;119894;-73
2022/11/09 00:42:56;;;;;;;8.40;3.90;;;;;;;16.28;63.05;99925.56;4926424;28;122215;-73
2022/11/09 00:45:21;;;;;;;10.13;3.55;;;;;;;16.34;63.11;99934.63;4948006;28;119906;-73
2022/11/09 00:47:47;;;;;;;7.82;3.50;;;;;;;16.41;62.99;99934.09;4942313;28;120384;-74
2022/11/09 00:50:13;;;;;;;8.35;3.58;;;;;;;16.47;62.74;99936.81;4942389;28;120043;-75
2022/11/09 00:52:39;;;;;;;9.32;3.70;;;;;;;16.52;62.87;99936.81;4923116;28;119564;-74
2022/11/09 00:55:05;;;;;;;7.33;3.50;;;;;;;16.56;62.70;99940.09;4924744;28;119625;-74
2022/11/09 00:57:31;;;;;;;9.18;3.47;;;;;;;16.59;62.43;99927.22;4944265;28;119810;-74
2022/11/09 00:59:57;;;;;;;8.80;3.60;;;;;;;16.64;62.40;99932.00;4938941;28;119770;-74
2022/11/09 01:02:23;;;;;;;7.68;3.55;;;;;;;16.68;62.03;99926.22;4923396;28;120124;-75
2022/11/09 01:04:50;;;;;;;9.43;3.55;;;;;;;16.70;62.33;99929.22;4935888;28;120214;-74
2022/11/09 01:07:17;;;;;;;9.07;3.33;;;;;;;16.73;62.10;99923.41;4948708;28;120387;-74
2022/11/09 01:09:43;;;;;;;8.23;3.43;;;;;;;16.76;62.13;99932.69;4934669;28;119457;-73
2022/11/09 01:12:08;;;;;;;10.20;3.70;;;;;;;16.75;62.51;99926.41;4944333;28;120074;-73
2022/11/09 01:14:35;;;;;;;7.03;3.40;;;;;;;16.78;62.29;99933.69;4943417;28;120068;-73
2022/11/09 01:17:02;;;;;;;9.02;3.30;;;;;;;16.82;62.06;99941.75;4923733;28;119585;-74
2022/11/09 01:19:27;;;;;;;8.10;3.40;;;;;;;16.85;62.01;99943.50;4934103;28;119811;-72
2022/11/09 01:21:53;;;;;;;8.93;3.30;;;;;;;16.83;62.02;99943.25;4932779;28;121223;-73
2022/11/09 01:24:20;;;;;;;7.97;3.30;;;;;;;16.83;62.06;99949.56;4943376;28;119512;-74
2022/11/09 01:26:46;;;;;;;8.25;3.17;;;;;;;16.85;62.31;99932.41;4946349;28;119825;-74
2022/11/09 01:29:12;;;;;;;9.23;3.30;;;;;;;16.77;62.11;99920.34;4946548;28;119704;-75
2022/11/09 01:31:45;;;;;;;8.02;3.38;;;;;;;16.86;62.05;99936.69;4926046;28;119394;-74
2022/11/09 01:34:11;;;;;;;9.10;3.10;;;;;;;16.89;62.12;99930.13;4943988;28;122126;-73
2022/11/09 01:36:40;;;;;;;7.50;3.13;;;;;;;16.92;62.56;99912.47;4942541;28;120257;-74
2022/11/09 01:39:06;;;;;;;6.67;3.00;;;;;;;16.94;62.07;99909.94;4947102;28;120151;-73
2022/11/09 01:41:32;;;;;;;13.63;3.60;;;;;;;16.96;62.10;99903.91;4943627;28;119591;-73
2022/11/09 01:44:10;;;;;;;10.20;3.07;;;;;;;16.94;61.94;99907.19;4944208;28;119963;-74
2022/11/09 01:46:55;;;;;;;8.20;2.80;;;;;;;16.92;62.14;99915.25;4946460;28;120258;-75
2022/11/09 01:49:39;;;;;;;8.02;2.78;;;;;;;16.91;61.95;99913.75;4946808;28;120277;-74
2022/11/09 01:52:15;;;;;;;7.32;3.20;;;;;;;16.87;61.75;99904.97;4936701;28;120115;-74
2022/11/09 01:54:45;;;;;;;8.60;3.00;;;;;;;16.86;62.08;99909.00;4947473;28;119918;-74
2022/11/09 01:57:19;;;;;;;5.87;2.70;;;;;;;16.83;62.03;99921.09;4942239;28;119660;-74
2022/11/09 02:00:00;;;;;;;7.55;3.00;;;;;;;16.78;62.42;99913.56;4942921;28;119777;-74
2022/11/09 02:02:25;;;;;;;7.55;2.97;;;;;;;16.78;62.45;99919.09;4944725;28;119683;-74
2022/11/09 02:04:58;;;;;;;7.30;3.10;;;;;;;16.80;62.48;99919.38;4944280;28;120597;-73
2022/11/09 02:07:24;;;;;;;8.52;2.75;;;;;;;16.84;62.61;99922.59;4945038;28;120028;-74
2022/11/09 02:10:02;;;;;;;7.18;2.70;;;;;;;16.88;62.28;99923.09;4938260;28;120411;-73
2022/11/09 02:12:32;;;;;;;9.32;2.80;;;;;;;16.92;62.47;99925.59;4944543;28;120325;-74
2022/11/09 02:15:00;;;;;;;9.25;3.03;;;;;;;16.97;62.03;99925.53;4943596;28;121327;-73
2022/11/09 02:17:27;;;;;;;10.55;2.80;;;;;;;17.00;62.51;99918.97;4945432;28;119896;-74
2022/11/09 02:19:53;;;;;;;6.87;3.03;;;;;;;17.06;62.50;99932.81;4938866;28;120023;-74
2022/11/09 02:22:18;;;;;;;10.07;3.20;;;;;;;17.06;62.60;99922.47;4944981;28;120544;-74
2022/11/09 02:24:44;;;;;;;7.77;3.00;;;;;;;17.07;62.70;99921.22;4947345;28;120162;-73
2022/11/09 02:27:10;;;;;;;9.10;3.47;;;;;;;17.09;62.70;99921.44;4946924;28;120066;-73
2022/11/09 02:29:42;;;;;;;8.63;3.08;;;;;;;17.06;62.79;99922.47;4943411;28;119724;-73
2022/11/09 02:32:23;;;;;;;8.00;3.50;;;;;;;17.06;63.00;99914.16;4945568;28;119858;-74
2022/11/09 02:34:50;;;;;;;8.27;3.40;;;;;;;17.06;63.23;99913.41;4946300;28;120348;-74
2022/11/09 02:37:27;;;;;;;9.30;3.43;;;;;;;17.06;63.38;99916.94;4945794;28;119918;-74
2022/11/09 02:39:55;;;;;;;8.45;3.80;;;;;;;17.08;63.55;99905.34;4945687;28;119883;-73
2022/11/09 02:42:21;;;;;;;9.77;3.50;;;;;;;17.07;64.02;99917.69;4925071;28;120645;-74
2022/11/09 02:44:51;;;;;;;8.53;3.47;;;;;;;17.06;63.63;99916.19;4943159;28;119642;-74
2022/11/09 02:47:17;;;;;;;9.10;3.73;;;;;;;17.02;63.61;99907.38;4926834;28;119816;-74
2022/11/09 02:49:44;;;;;;;8.05;3.67;;;;;;;17.02;64.03;99910.91;4943147;28;120281;-74
2022/11/09 02:52:19;;;;;;;8.88;3.88;;;;;;;17.00;63.68;99901.59;4943419;28;119563;-73
2022/11/09 02:54:45;;;;;;;8.73;4.07;;;;;;;16.97;63.76;99897.84;4944171;28;120800;-74
2022/11/09 02:57:10;;;;;;;8.68;3.85;;;;;;;16.96;63.84;99892.81;4949114;28;120864;-74
2022/11/09 02:59:37;;;;;;;11.43;3.90;;;;;;;16.90;63.84;99890.09;4944279;28;119837;-74
2022/11/09 03:02:04;;;;;;;10.65;4.18;;;;;;;16.87;64.13;99904.97;4944143;28;120186;-74
2022/11/09 03:04:45;;;;;;;10.07;4.20;;;;;;;16.86;64.33;99897.91;4940385;28;120853;-74
2022/11/09 03:07:11;;;;;;;9.00;4.03;;;;;;;16.86;64.18;99903.47;4945829;28;120045;-73
2022/11/09 03:09:38;;;;;;;9.38;4.28;;;;;;;16.86;64.10;99911.78;4928184;28;119760;-73
2022/11/09 03:12:27;;;;;;;10.32;4.47;;;;;;;16.84;64.42;99897.69;4946853;28;120110;-73
2022/11/09 03:14:50;;;;;;;10.23;4.30;;;;;;;16.84;64.52;99901.22;4942226;28;120312;-74
2022/11/09 03:17:16;;;;;;;11.13;4.90;;;;;;;16.85;64.01;99899.19;4944049;28;120372;-73
2022/11/09 03:19:45;;;;;;;8.80;4.20;;;;;;;16.84;64.10;99903.22;4955539;28;119934;-74
2022/11/09 03:22:11;;;;;;;9.05;4.38;;;;;;;16.80;64.45;99894.44;4943266;28;119848;-74
2022/11/09 03:24:37;;;;;;;10.15;4.40;;;;;;;16.81;64.58;99898.72;4940999;28;119578;-74
2022/11/09 03:27:03;;;;;;;7.85;4.13;;;;;;;16.83;64.54;99901.72;4944213;28;119773;-74
2022/11/09 03:29:29;;;;;;;11.27;4.35;;;;;;;16.83;64.34;99902.47;4940947;28;120344;-74
2022/11/09 03:31:55;;;;;;;9.55;4.53;;;;;;;16.85;64.42;99913.78;4943886;28;120158;-74
2022/11/09 03:34:21;;;;;;;9.73;4.20;;;;;;;16.83;64.29;99910.78;4928879;28;119881;-73
2022/11/09 03:36:47;;;;;;;9.07;4.40;;;;;;;16.81;64.52;99915.31;4936896;28;120066;-74
2022/11/09 03:39:12;;;;;;;12.00;4.60;;;;;;;16.80;64.54;99911.06;4929071;28;120156;-75
2022/11/09 03:41:38;;;;;;;12.10;5.00;;;;;;;16.79;64.60;99906.75;4934268;28;120576;-74
2022/11/09 03:44:04;;;;;;;11.10;4.88;;;;;;;16.76;64.26;99902.25;4941427;28;120502;-74
2022/11/09 03:46:29;;;;;;;10.05;4.40;;;;;;;16.71;64.06;99914.84;4944828;28;119963;-75
2022/11/09 03:48:55;;;;;;;11.03;5.07;;;;;;;16.69;64.58;99911.09;4944977;28;119902;-73
2022/11/09 03:51:21;;;;;;;8.33;4.63;;;;;;;16.66;64.71;99912.09;4940823;28;119975;-74
2022/11/09 03:53:47;;;;;;;9.80;4.80;;;;;;;16.62;64.69;99911.63;4945123;28;120580;-75
2022/11/09 03:56:12;;;;;;;8.77;4.50;;;;;;;16.60;64.60;99909.34;4944543;28;120550;-74
2022/11/09 03:58:41;;;;;;;10.47;4.60;;;;;;;16.58;64.73;99903.59;4944726;28;120187;-74
2022/11/09 04:01:07;;;;;;;8.88;4.70;;;;;;;16.57;64.92;99905.59;4945525;28;120204;-75
2022/11/09 04:03:37;;;;;;;10.73;4.80;;;;;;;16.59;64.91;99907.84;4938242;28;120656;-74
2022/11/09 04:06:03;;;;;;;10.33;4.70;;;;;;;16.61;64.88;99896.28;4946017;28;119963;-73
2022/11/09 04:08:29;;;;;;;9.65;5.00;;;;;;;16.64;64.89;99904.31;4944435;28;119785;-73
2022/11/09 04:10:59;;;;;;;9.23;4.60;;;;;;;16.65;64.62;99897.50;4934838;28;119984;-74
2022/11/09 04:13:25;;;;;;;9.48;4.65;;;;;;;16.68;64.53;99904.06;4944721;28;119943;-74
2022/11/09 04:15:50;;;;;;;8.52;4.80;;;;;;;16.67;64.72;99899.78;4944093;28;120045;-75
2022/11/09 04:18:16;;;;;;;9.45;4.60;;;;;;;16.69;64.36;99897.25;4945734;28;120484;-75
2022/11/09 04:20:42;;;;;;;10.05;4.65;;;;;;;16.68;64.77;99896.50;4944383;28;119839;-75
2022/11/09 04:23:11;;;;;;;8.23;4.70;;;;;;;16.70;64.61;99898.75;4948051;28;120967;-74
2022/11/09 04:25:38;;;;;;;10.18;4.32;;;;;;;16.70;64.31;99884.91;4944839;28;119967;-75
2022/11/09 04:28:08;;;;;;;8.60;4.40;;;;;;;16.69;64.12;99886.19;4939007;28;119912;-74
2022/11/09 04:30:35;;;;;;;10.23;4.50;;;;;;;16.65;63.75;99883.66;4945065;28;120275;-75
2022/11/09 04:33:08;;;;;;;9.73;4.57;;;;;;;16.61;64.41;99882.44;4941155;28;119626;-74
2022/11/09 04:35:35;;;;;;;9.55;4.53;;;;;;;16.57;64.47;99886.22;4941581;28;120475;-74
2022/11/09 04:38:04;;;;;;;9.27;4.15;;;;;;;16.57;64.38;99882.69;4943336;28;119920;-73
2022/11/09 04:40:32;;;;;;;10.13;4.30;;;;;;;16.52;64.35;99886.97;4944657;28;120170;-74
2022/11/09 04:42:59;;;;;;;9.65;4.05;;;;;;;16.50;64.34;99883.97;4941449;28;120393;-73
2022/11/09 04:45:28;;;;;;;7.63;4.13;;;;;;;16.47;64.39;99885.00;4927107;28;119657;-74
2022/11/09 04:47:58;;;;;;;9.65;4.20;;;;;;;16.43;64.30;99898.34;4938223;28;120115;-73
2022/11/09 04:50:24;;;;;;;9.37;4.10;;;;;;;16.41;64.74;99887.03;4940311;28;120491;-74
2022/11/09 04:52:50;;;;;;;13.13;4.13;;;;;;;16.41;64.95;99902.88;4948712;28;119393;-74
2022/11/09 04:55:16;;;;;;;9.68;4.50;;;;;;;16.43;65.01;99901.13;4948387;28;120625;-74
2022/11/09 04:57:42;;;;;;;10.23;4.40;;;;;;;16.43;64.67;99903.88;4944580;28;120050;-74
2022/11/09 05:00:08;;;;;;;9.57;4.47;;;;;;;16.43;64.97;99901.13;4941842;28;119927;-74
2022/11/09 05:02:34;;;;;;;10.77;4.40;;;;;;;16.42;64.83;99905.16;4942109;28;120034;-74
2022/11/09 05:04:59;;;;;;;9.63;4.23;;;;;;;16.42;64.89;99907.91;4944999;28;120500;-74
2022/11/09 05:07:25;;;;;;;11.60;4.13;;;;;;;16.41;64.86;99903.63;4946198;28;119998;-74
2022/11/09 05:09:51;;;;;;;12.13;4.47;;;;;;;16.45;64.76;99901.34;4956171;28;120136;-74
2022/11/09 05:12:16;;;;;;;9.70;4.10;;;;;;;16.46;64.83;99894.56;4944032;28;119928;-75
2022/11/09 05:14:42;;;;;;;9.03;3.87;;;;;;;16.51;64.87;99915.16;4942589;28;120705;-75
2022/11/09 05:17:08;;;;;;;10.57;3.90;;;;;;;16.53;64.94;99904.34;4935568;28;121490;-73
2022/11/09 05:19:34;;;;;;;12.50;4.10;;;;;;;16.54;64.88;99914.91;4943614;28;120000;-74
2022/11/09 05:23:57;;;;;;;9.70;4.00;;;;;;;16.60;64.57;99914.91;4940826;28;119986;-74
2022/11/09 05:24:50;;;;;;;10.10;3.83;;;;;;;16.60;64.53;99914.91;4941589;28;119961;-74
2022/11/09 05:27:16;;;;;;;8.70;3.60;;;;;;;16.61;64.17;99910.88;4942576;28;119648;-74
2022/11/09 05:29:42;;;;;;;12.27;4.07;;;;;;;16.61;64.73;99912.88;4947359;28;120733;-73
2022/11/09 05:32:07;;;;;;;10.50;4.00;;;;;;;16.60;64.27;99914.16;4944325;28;119715;-74
2022/11/09 05:34:33;;;;;;;11.48;4.22;;;;;;;16.57;64.13;99913.16;4941338;28;120139;-74
2022/11/09 05:37:24;;;;;;;10.20;4.15;;;;;;;16.54;64.76;99925.97;4898209;28;120026;-74
2022/11/09 05:39:50;;;;;;;9.40;3.90;;;;;;;16.50;64.37;99919.94;4945247;28;120190;-74
2022/11/09 05:42:16;;;;;;;11.48;3.95;;;;;;;16.47;64.45;99914.69;4941168;28;119833;-74
2022/11/09 05:44:41;;;;;;;9.85;3.92;;;;;;;16.44;64.12;99913.69;4942558;28;119557;-74
2022/11/09 05:47:07;;;;;;;9.80;3.80;;;;;;;16.46;64.78;99927.03;4942029;28;120180;-74
2022/11/09 05:49:33;;;;;;;8.57;3.80;;;;;;;16.48;64.95;99925.25;4944684;28;120009;-75
2022/11/09 05:51:58;;;;;;;9.03;3.50;;;;;;;16.55;64.99;99932.25;4942046;28;119873;-74
2022/11/09 05:54:24;;;;;;;10.60;3.70;;;;;;;16.60;64.79;99923.19;4943101;28;120002;-75
2022/11/09 05:56:50;;;;;;;11.57;3.93;;;;;;;16.71;65.00;99933.50;4936217;28;119917;-74
2022/11/09 05:59:15;;;;;;;10.10;3.93;;;;;;;16.77;64.31;99932.19;4942576;28;119530;-75
2022/11/09 06:01:41;;;;;;;10.37;3.70;;;;;;;16.84;64.48;99936.47;4940435;28;119317;-74
2022/11/09 06:04:07;;;;;;;9.93;3.50;;;;;;;16.89;64.02;99938.44;4941480;28;120002;-73
2022/11/09 06:06:32;;;;;;;10.47;3.60;;;;;;;16.92;64.01;99934.66;4938139;28;119996;-74
2022/11/09 06:08:58;;;;;;;10.87;3.67;;;;;;;16.94;63.51;99942.44;4942397;28;120236;-74
2022/11/09 06:11:24;;;;;;;9.02;3.70;;;;;;;16.93;63.66;99944.47;4934083;28;119916;-74
2022/11/09 06:13:50;;;;;;;13.32;4.00;;;;;;;16.93;63.58;99940.94;4938905;28;120376;-75
2022/11/09 06:16:16;;;;;;;10.30;3.50;;;;;;;16.91;63.49;99943.47;4946687;28;119578;-73
2022/11/09 06:18:41;;;;;;;9.90;4.00;;;;;;;16.88;63.54;99940.47;4945510;28;121027;-75
2022/11/09 06:21:17;;;;;;;10.53;3.90;;;;;;;16.87;63.87;99943.75;4945169;28;119865;-74
2022/11/09 06:23:43;;;;;;;9.53;3.70;;;;;;;16.85;63.75;99937.97;4944386;28;120290;-73
2022/11/09 06:26:10;;;;;;;11.97;3.83;;;;;;;16.85;63.75;99947.03;4946622;28;120145;-74
2022/11/09 06:28:36;;;;;;;12.63;3.63;;;;;;;16.84;63.82;99939.22;4945598;28;120006;-73
2022/11/09 06:31:04;;;;;;;12.40;3.90;;;;;;;16.82;63.70;99939.00;4949157;28;119963;-75
2022/11/09 06:33:31;;;;;;;12.18;3.92;;;;;;;16.79;63.72;99937.97;4936651;28;119618;-75
2022/11/09 06:36:18;;;;;;;9.77;3.67;;;;;;;16.78;63.86;99936.47;4945687;28;119978;-74
2022/11/09 06:38:48;;;;;;;11.05;4.00;;;;;;;16.75;63.67;99945.03;4944147;28;119611;-74
2022/11/09 06:41:16;;;;;;;10.43;4.05;;;;;;;16.73;63.81;99944.81;4938043;28;120814;-75
2022/11/09 06:43:43;;;;;;;11.23;3.83;;;;;;;16.70;63.79;99952.13;4946255;28;119835;-74
2022/11/09 06:46:10;;;;;;;12.25;4.20;;;;;;;16.69;63.87;99955.41;4944913;28;120399;-74
2022/11/09 06:48:37;;;;;;;12.50;4.37;;;;;;;16.66;63.99;99950.84;4940408;28;120077;-74
2022/11/09 06:51:04;;;;;;;11.43;4.05;;;;;;;16.63;63.98;99960.94;4944072;28;120396;-73
2022/11/09 06:53:36;;;;;;;12.05;3.95;;;;;;;16.61;64.36;99965.47;4944352;28;120474;-75
2022/11/09 06:56:04;;;;;;;10.30;3.70;;;;;;;16.58;63.95;99968.00;4947615;28;120957;-74
2022/11/09 06:58:30;;;;;;;13.88;4.03;;;;;;;16.54;64.38;99964.72;4943674;28;120645;-73
2022/11/09 07:00:57;;;;;;;10.68;3.88;;;;;;;16.53;64.38;99968.00;4945142;28;119961;-73
2022/11/09 07:03:38;;;;;;;12.88;3.90;;;;;;;16.47;64.45;99961.75;4944519;28;120274;-74
2022/11/09 07:06:09;;;;;;;11.90;3.80;;;;;;;16.47;64.18;99967.28;4942005;28;119802;-73
2022/11/09 07:08:35;;;;;;;11.10;4.10;;;;;;;16.46;64.64;99974.81;4940557;28;120490;-74
2022/11/09 07:11:10;;;;;;;12.88;3.92;;;;;;;16.44;64.46;99971.81;4943719;28;120060;-74
2022/11/09 07:13:37;;;;;;;12.10;3.67;;;;;;;16.39;64.56;99964.28;4942735;28;120078;-74
2022/11/09 07:16:04;;;;;;;11.70;3.78;;;;;;;16.40;64.34;99967.81;4944671;28;119919;-74
2022/11/09 07:18:50;;;;;;;14.80;4.00;;;;;;;16.42;64.49;99979.88;4949651;28;119519;-73
2022/11/09 07:21:16;;;;;;;14.60;3.65;;;;;;;16.45;64.44;99973.31;4944054;28;120872;-74
2022/11/09 07:23:42;;;;;;;13.25;3.70;;;;;;;16.46;64.91;99969.28;4941555;28;120035;-74
2022/11/09 07:26:08;;;;;;;13.90;3.60;;;;;;;16.48;64.24;99972.31;4941004;28;119723;-74
2022/11/09 07:28:34;;;;;;;12.83;3.83;;;;;;;16.47;63.97;99970.78;4941035;28;120592;-74
2022/11/09 07:31:00;;;;;;;13.68;3.67;;;;;;;16.48;64.35;99980.59;4941749;28;119979;-74
2022/11/09 07:33:29;;;;;;;14.60;3.72;;;;;;;16.48;64.35;99975.06;4943642;28;120193;-75
2022/11/09 07:36:00;;;;;;;13.27;3.97;;;;;;;16.49;64.28;99975.81;4939007;28;122707;-74
2022/11/09 07:38:27;;;;;;;16.55;3.75;;;;;;;16.50;63.98;99972.53;4940622;28;120140;-74
2022/11/09 07:40:59;;;;;;;14.43;4.00;;;;;;;16.49;64.25;99973.06;4934228;28;119995;-74
2022/11/09 07:43:25;;;;;;;13.00;3.78;;;;;;;16.54;64.13;99978.56;4940857;28;120484;-74
2022/11/09 07:45:52;;;;;;;15.98;3.70;;;;;;;16.55;64.10;99980.06;4938977;28;120329;-74
2022/11/09 07:48:18;;;;;;;13.50;3.78;;;;;;;16.56;63.97;99987.16;4939589;28;120003;-74
2022/11/09 07:50:44;;;;;;;14.57;3.67;;;;;;;16.56;63.72;99984.38;4939880;28;119697;-74
2022/11/09 07:53:12;;;;;;;16.05;4.05;;;;;;;16.61;64.12;99999.47;4940139;28;120077;-74
2022/11/09 07:55:39;;;;;;;13.27;3.65;;;;;;;16.63;63.88;99990.63;4941682;28;119925;-75
2022/11/09 07:58:08;;;;;;;17.03;4.37;;;;;;;16.63;63.75;99988.63;4926531;28;120553;-74
2022/11/09 08:00:36;;;;;;;15.75;3.47;;;;;;;16.67;63.70;99993.91;4944102;28;120105;-74
2022/11/09 08:03:02;;;;;;;15.65;3.78;;;;;;;16.69;63.65;99994.91;4939522;28;119967;-74
2022/11/09 08:05:28;;;;;;;17.60;4.15;;;;;;;16.71;63.15;99997.19;4941222;28;120172;-73
2022/11/09 08:08:00;;;;;;;17.90;4.30;;;;;;;16.75;63.65;99997.66;4936876;28;120018;-75
2022/11/09 08:10:27;;;;;;;15.38;3.75;;;;;;;16.66;63.41;99989.63;4938800;28;120464;-74
2022/11/09 08:12:59;;;;;;;14.45;3.67;;;;;;;16.77;63.65;100006.97;4937843;28;120247;-74
2022/11/09 08:15:25;;;;;;;14.52;3.53;;;;;;;16.80;63.49;100002.44;4954015;28;119694;-73
2022/11/09 08:17:52;;;;;;;13.60;3.80;;;;;;;16.86;63.76;100006.69;4938500;28;120180;-73
2022/11/09 08:20:19;;;;;;;12.68;3.67;;;;;;;16.96;63.96;100001.59;4942299;28;120494;-74
2022/11/09 08:22:45;;;;;;;13.37;3.87;;;;;;;17.07;63.67;100007.09;4945137;28;119912;-74
2022/11/09 08:25:12;;;;;;;13.35;3.30;;;;;;;17.18;63.25;100012.56;4941124;28;119752;-74
2022/11/09 08:27:41;;;;;;;12.10;3.70;;;;;;;17.33;63.51;100012.25;4939702;28;120046;-74
2022/11/09 08:30:13;;;;;;;15.32;3.95;;;;;;;17.51;63.26;100010.88;4941386;28;120167;-75
2022/11/09 08:32:40;;;;;;;14.38;3.72;;;;;;;17.57;61.91;100008.81;4939729;28;119936;-74
2022/11/09 08:35:08;;;;;;;11.95;3.50;;;;;;;17.60;61.34;100009.81;4939750;28;120307;-75
2022/11/09 08:37:38;;;;;;;15.23;4.07;;;;;;;17.57;61.64;100014.38;4937904;28;119788;-73
2022/11/09 08:40:06;;;;;;;13.00;3.55;;;;;;;17.52;61.73;100017.94;4940751;28;119894;-73
2022/11/09 08:42:32;;;;;;;14.02;3.92;;;;;;;17.48;61.87;100023.72;4939405;28;120167;-74
2022/11/09 08:44:58;;;;;;;17.45;3.78;;;;;;;17.45;61.73;100015.69;4941860;28;121364;-73
2022/11/09 08:47:45;;;;;;;12.98;3.78;;;;;;;17.39;61.87;100020.53;4885834;28;120164;-74
2022/11/09 08:50:12;;;;;;;13.87;3.77;;;;;;;17.35;62.02;100022.81;4898899;28;119856;-74
2022/11/09 08:52:39;;;;;;;12.88;3.95;;;;;;;17.31;62.11;100023.09;4881956;28;120215;-74
2022/11/09 08:55:05;;;;;;;12.97;3.87;;;;;;;17.28;62.43;100031.69;4881972;28;120196;-73
2022/11/09 08:57:31;;;;;;;12.70;3.45;;;;;;;17.24;62.64;100028.41;4898042;28;120717;-74
2022/11/09 08:59:57;;;;;;;11.43;3.87;;;;;;;17.18;62.78;100034.75;4899202;28;120042;-74
2022/11/09 09:02:23;;;;;;;15.87;4.03;;;;;;;17.19;62.49;100030.72;4913397;28;119666;-73
2022/11/09 09:04:48;;;;;;;14.50;4.00;;;;;;;17.19;63.11;100030.72;4941826;28;119743;-75
2022/11/09 09:07:14;;;;;;;15.60;3.87;;;;;;;17.23;63.31;100035.97;4945234;28;120503;-74
2022/11/09 09:09:40;;;;;;;14.87;4.40;;;;;;;17.29;63.48;100028.41;4937802;28;120236;-74
2022/11/09 09:12:06;;;;;;;15.47;3.90;;;;;;;17.36;63.08;100044.47;4941299;28;119977;-74
2022/11/09 09:14:32;;;;;;;15.13;3.78;;;;;;;17.43;62.80;100035.63;4939309;28;119828;-76
2022/11/09 09:16:59;;;;;;;14.20;3.88;;;;;;;17.47;62.57;100043.66;4940371;28;120047;-74
2022/11/09 09:19:24;;;;;;;17.67;4.20;;;;;;;17.56;62.64;100048.16;4939919;28;119542;-74
2022/11/09 09:21:55;;;;;;;14.50;3.88;;;;;;;17.63;62.74;100051.13;4940975;28;120145;-74
2022/11/09 09:24:38;;;;;;;13.70;3.97;;;;;;;17.69;62.46;100057.41;4938238;28;119925;-75
2022/11/09 09:27:04;;;;;;;15.80;4.15;;;;;;;17.74;62.00;100053.88;4937850;28;122552;-74
2022/11/09 09:29:30;;;;;;;11.95;3.80;;;;;;;17.74;62.05;100039.22;4944974;28;120324;-74
2022/11/09 09:32:10;;;;;;;17.75;4.18;;;;;;;17.75;61.95;100055.38;4940624;28;120597;-74
2022/11/09 09:34:54;;;;;;;13.63;4.00;;;;;;;17.75;61.90;100052.59;4939122;28;119611;-75
2022/11/09 09:37:20;;;;;;;16.97;4.00;;;;;;;17.78;61.66;100059.88;4939790;28;119975;-74
2022/11/09 09:39:46;;;;;;;14.23;4.10;;;;;;;17.82;62.00;100053.31;4939687;28;119924;-74
2022/11/09 09:42:22;;;;;;;15.70;4.10;;;;;;;17.87;61.76;100060.81;4939814;28;120398;-74
2022/11/09 09:44:48;;;;;;;15.25;4.10;;;;;;;17.93;61.38;100055.97;4938254;28;120197;-73
2022/11/09 09:47:50;;;;;;;13.82;4.30;;;;;;;17.98;61.37;100057.94;4939070;28;120009;-74
2022/11/09 09:50:45;;;;;;;15.63;4.45;;;;;;;18.00;61.24;100058.22;4944419;28;120190;-74
2022/11/09 09:53:20;;;;;;;15.95;4.28;;;;;;;18.02;61.24;100052.91;4938008;28;119313;-74
2022/11/09 09:55:52;;;;;;;15.30;4.40;;;;;;;18.04;61.41;100059.44;4942458;28;122810;-75
2022/11/09 09:58:26;;;;;;;15.88;4.32;;;;;;;18.04;60.96;100064.97;4944709;28;119686;-73
2022/11/09 10:00:57;;;;;;;13.87;4.20;;;;;;;18.06;61.23;100064.47;4944607;28;120626;-74
2022/11/09 10:03:23;;;;;;;14.38;4.10;;;;;;;18.14;60.87;100072.97;4944635;28;120610;-74
2022/11/09 10:06:00;;;;;;;15.65;4.13;;;;;;;18.17;60.79;100064.34;4945172;28;120003;-74
2022/11/09 10:08:42;;;;;;;16.95;4.05;;;;;;;18.24;60.74;100068.63;4940986;28;120127;-74
2022/11/09 10:11:46;;;;;;;13.80;4.10;;;;;;;18.29;60.15;100085.22;4944041;28;120034;-75
2022/11/09 10:14:26;;;;;;;13.52;4.18;;;;;;;18.31;60.18;100079.16;4883997;28;120570;-74
2022/11/09 10:17:31;;;;;;;17.17;4.40;;;;;;;18.26;59.92;100082.72;4937866;28;119935;-74
2022/11/09 10:20:34;;;;;;;14.27;4.23;;;;;;;18.31;60.13;100088.22;4893946;28;120246;-74
2022/11/09 10:23:00;;;;;;;12.88;3.65;;;;;;;18.28;60.15;100075.38;4945352;28;119679;-74
2022/11/09 10:25:27;;;;;;;14.90;4.00;;;;;;;18.30;60.09;100077.63;4940334;28;120931;-73
2022/11/09 10:27:56;;;;;;;14.93;4.13;;;;;;;18.32;59.60;100083.41;4943757;28;120564;-74
2022/11/09 10:30:24;;;;;;;14.38;4.10;;;;;;;18.35;59.88;100096.25;4944493;28;120351;-74
2022/11/09 10:32:56;;;;;;;12.95;3.80;;;;;;;18.35;59.58;100080.34;4939127;28;119667;-74
2022/11/09 10:35:33;;;;;;;13.95;3.58;;;;;;;18.42;59.85;100085.34;4926231;28;120242;-74
2022/11/09 10:37:59;;;;;;;17.00;3.90;;;;;;;18.44;59.53;100084.81;4947433;28;119822;-74
2022/11/09 10:40:30;;;;;;;16.03;3.90;;;;;;;18.44;58.98;100086.84;4925956;28;120158;-75
2022/11/09 10:43:22;;;;;;;14.27;3.95;;;;;;;18.44;59.54;100082.03;4943806;28;119565;-75
2022/11/09 10:46:07;;;;;;;16.25;4.10;;;;;;;18.48;59.47;100088.06;4944815;28;119883;-74
2022/11/09 10:48:54;;;;;;;13.10;3.80;;;;;;;18.49;58.92;100086.06;4943732;28;120005;-73
2022/11/09 10:51:42;;;;;;;14.27;3.83;;;;;;;18.47;58.93;100091.38;4938395;28;119802;-74
2022/11/09 10:54:33;;;;;;;15.23;4.17;;;;;;;18.39;59.21;100089.16;4943436;28;119987;-74
2022/11/09 10:57:20;;;;;;;17.63;4.38;;;;;;;18.44;59.15;100092.38;4932041;28;119885;-74
2022/11/09 11:00:07;;;;;;;12.40;3.88;;;;;;;18.48;59.49;100098.44;4940599;28;119646;-74
2022/11/09 11:03:16;;;;;;;11.45;3.90;;;;;;;18.48;59.20;100093.63;4948552;28;120615;-74
2022/11/09 11:06:04;;;;;;;14.40;3.87;;;;;;;18.48;59.27;100099.19;4946275;28;120113;-75
2022/11/09 11:08:50;;;;;;;14.20;4.00;;;;;;;18.47;58.80;100088.59;4943183;28;120749;-75
2022/11/09 11:11:36;;;;;;;15.07;3.80;;;;;;;18.39;58.69;100091.94;4936003;28;119854;-74
2022/11/09 11:14:33;;;;;;;14.55;3.83;;;;;;;18.34;59.37;100095.50;4945184;28;119508;-74
2022/11/09 11:17:23;;;;;;;15.30;4.13;;;;;;;18.35;59.22;100097.00;4943593;28;120371;-73
2022/11/09 11:20:29;;;;;;;14.98;3.80;;;;;;;18.35;59.02;100091.47;4948034;28;120038;-74
2022/11/09 11:23:19;;;;;;;15.20;4.00;;;;;;;18.36;58.96;100098.53;4942330;28;119933;-73
2022/11/09 11:26:22;;;;;;;13.73;3.47;;;;;;;18.34;59.14;100089.97;4941767;28;119844;-73
2022/11/09 11:29:30;;;;;;;16.07;3.80;;;;;;;18.34;59.41;100101.06;4946917;28;119901;-74
2022/11/09 11:32:16;;;;;;;16.15;3.95;;;;;;;18.32;59.29;100095.28;4942854;28;119993;-74